Time,TemperatureF,DewpointF,PressureIn,WindDirection,WindDirectionDegrees,WindSpeedMPH,WindSpeedGustMPH,Humidity,HourlyPrecipIn,Conditions,Clouds,dailyrainin,SolarRadiationWatts/m^2,SoftwareType,DateUTC
2013-03-14 00:00:00,37.3,23.9,29.90,West,271,0.0,0.0,58,0.00,,---,0.00,0.00,VWS V14.01,2013-03-14 04:00:00,
2013-03-14 00:05:00,37.1,23.7,29.90,WSW,256,0.0,0.0,58,0.00,,---,0.00,0.00,VWS V14.01,2013-03-14 04:05:00,
2013-03-14 00:10:00,36.9,23.5,29.90,WNW,286,0.0,0.0,58,0.00,,---,0.00,0.00,VWS V14.01,2013-03-14 04:10:00,
2013-03-14 00:15:00,36.8,23.4,29.90,West,276,0.0,0.0,58,0.00,,---,0.00,0.00,VWS V14.01,2013-03-14 04:15:00,
2013-03-14 00:20:00,36.7,23.7,29.90,WNW,282,0.0,0.0,59,0.00,,---,0.00,0.00,VWS V14.01,2013-03-14 04:20:00,
2013-03-14 00:25:00,36.7,23.7,29.90,SW,232,0.0,0.0,59,0.00,,---,0.00,0.00,VWS V14.01,2013-03-14 04:25:00,
2013-03-14 00:30:00,36.5,23.1,29.90,SW,232,0.0,0.0,58,0.00,,---,0.00,0.00,VWS V14.01,2013-03-14 04:30:00,
2013-03-14 00:35:00,36.4,23.0,29.90,West,265,0.0,0.0,58,0.00,,---,0.00,0.00,VWS V14.01,2013-03-14 04:35:00,
2013-03-14 00:40:00,36.2,22.9,29.90,West,267,0.0,0.0,58,0.00,,---,0.00,0.00,VWS V14.01,2013-03-14 04:40:00,
2013-03-14 00:45:00,36.0,22.7,29.90,West,279,0.0,0.0,58,0.00,,---,0.00,0.00,VWS V14.01,2013-03-14 04:45:00,
2013-03-14 00:50:00,35.8,22.5,29.90,WNW,288,0.0,0.0,58,0.00,,---,0.00,0.00,VWS V14.01,2013-03-14 04:50:00,
2013-03-14 00:55:00,35.7,22.0,29.90,West,273,0.0,0.0,57,0.00,,---,0.00,0.00,VWS V14.01,2013-03-14 04:55:00,
2013-03-14 01:00:00,35.6,21.5,29.90,WNW,294,0.0,0.0,56,0.00,,---,0.00,0.00,VWS V14.01,2013-03-14 05:00:00,
2013-03-14 01:05:00,35.6,21.0,29.90,West,261,0.0,0.0,55,0.00,,---,0.00,0.00,VWS V14.01,2013-03-14 05:05:00,
2013-03-14 01:10:00,35.7,20.3,29.90,West,262,0.0,0.0,53,0.00,,---,0.00,0.00,VWS V14.01,2013-03-14 05:10:00,
2013-03-14 01:15:00,35.5,19.6,29.90,WNW,282,0.0,0.0,52,0.00,,---,0.00,0.00,VWS V14.01,2013-03-14 05:15:00,
2013-03-14 01:20:00,35.1,19.3,29.90,WSW,247,0.0,0.0,52,0.00,,---,0.00,0.00,VWS V14.01,2013-03-14 05:20:00,
2013-03-14 01:25:00,35.0,18.7,29.90,West,275,0.0,0.0,51,0.00,,---,0.00,0.00,VWS V14.01,2013-03-14 05:25:00,
2013-03-14 01:30:00,34.9,19.1,29.90,WNW,285,0.0,0.0,52,0.00,,---,0.00,0.00,VWS V14.01,2013-03-14 05:30:00,
2013-03-14 01:35:00,34.9,18.6,29.90,West,273,0.0,0.0,51,0.00,,---,0.00,0.00,VWS V14.01,2013-03-14 05:35:00,
2013-03-14 01:40:00,34.6,18.8,29.90,WSW,251,0.0,0.0,52,0.00,,---,0.00,0.00,VWS V14.01,2013-03-14 05:40:00,
2013-03-14 01:45:00,34.6,18.3,29.90,West,262,0.0,0.0,51,0.00,,---,0.00,0.00,VWS V14.01,2013-03-14 05:45:00,
2013-03-14 01:50:00,34.4,18.6,29.90,WNW,286,0.0,0.0,52,0.00,,---,0.00,0.00,VWS V14.01,2013-03-14 05:50:00,
2013-03-14 01:55:00,34.3,18.1,29.91,West,268,0.0,0.0,51,0.00,,---,0.00,0.00,VWS V14.01,2013-03-14 05:55:00,
2013-03-14 02:00:00,34.1,18.3,29.91,WNW,291,0.0,0.0,52,0.00,,---,0.00,0.00,VWS V14.01,2013-03-14 06:00:00,
2013-03-14 02:05:00,34.1,18.3,29.91,West,268,0.0,0.0,52,0.00,,---,0.00,0.00,VWS V14.01,2013-03-14 06:05:00,
2013-03-14 02:10:00,34.0,18.2,29.91,WNW,298,0.0,0.0,52,0.00,,---,0.00,0.00,VWS V14.01,2013-03-14 06:10:00,
2013-03-14 02:15:00,33.9,18.1,29.91,West,261,0.0,0.0,52,0.00,,---,0.00,0.00,VWS V14.01,2013-03-14 06:15:00,
2013-03-14 02:20:00,33.9,18.1,29.91,NW,309,0.0,0.0,52,0.00,,---,0.00,0.00,VWS V14.01,2013-03-14 06:20:00,
2013-03-14 02:25:00,34.0,18.2,29.91,WSW,249,0.0,0.0,52,0.00,,---,0.00,0.00,VWS V14.01,2013-03-14 06:25:00,
2013-03-14 02:30:00,33.9,18.1,29.91,West,279,0.0,0.0,52,0.00,,---,0.00,0.00,VWS V14.01,2013-03-14 06:30:00,
2013-03-14 02:35:00,33.9,18.1,29.91,WNW,285,0.0,0.0,52,0.00,,---,0.00,0.00,VWS V14.01,2013-03-14 06:35:00,
2013-03-14 02:40:00,34.1,18.3,29.91,SW,232,0.0,0.0,52,0.00,,---,0.00,0.00,VWS V14.01,2013-03-14 06:40:00,
2013-03-14 02:45:00,33.9,18.1,29.91,WNW,296,0.0,0.0,52,0.00,,---,0.00,0.00,VWS V14.01,2013-03-14 06:45:00,
2013-03-14 02:50:00,33.9,18.6,29.91,WSW,251,0.0,0.0,53,0.00,,---,0.00,0.00,VWS V14.01,2013-03-14 06:50:00,
2013-03-14 02:55:00,34.0,18.2,29.91,WNW,286,0.0,0.0,52,0.00,,---,0.00,0.00,VWS V14.01,2013-03-14 06:55:00,
2013-03-14 03:00:00,33.9,18.1,29.91,WSW,238,0.0,0.0,52,0.00,,---,0.00,0.00,VWS V14.01,2013-03-14 07:00:00,
2013-03-14 03:05:00,34.1,18.3,29.91,West,280,0.0,0.0,52,0.00,,---,0.00,0.00,VWS V14.01,2013-03-14 07:05:00,
2013-03-14 03:10:00,34.1,18.3,29.91,West,274,0.0,0.0,52,0.00,,---,0.00,0.00,VWS V14.01,2013-03-14 07:10:00,
2013-03-14 03:15:00,33.9,18.1,29.91,West,275,0.0,0.0,52,0.00,,---,0.00,0.00,VWS V14.01,2013-03-14 07:15:00,
2013-03-14 03:20:00,33.9,18.1,29.91,WSW,244,0.0,0.0,52,0.00,,---,0.00,0.00,VWS V14.01,2013-03-14 07:20:00,
2013-03-14 03:25:00,33.7,17.0,29.91,WNW,285,0.0,0.0,50,0.00,,---,0.00,0.00,VWS V14.01,2013-03-14 07:25:00,
2013-03-14 03:30:00,33.7,16.6,29.91,NNW,332,0.0,0.0,49,0.00,,---,0.00,0.00,VWS V14.01,2013-03-14 07:30:00,
2013-03-14 03:35:00,33.7,17.0,29.91,WNW,296,0.0,0.0,50,0.00,,---,0.00,0.00,VWS V14.01,2013-03-14 07:35:00,
2013-03-14 03:40:00,33.7,17.0,29.91,WSW,246,0.0,0.0,50,0.00,,---,0.00,0.00,VWS V14.01,2013-03-14 07:40:00,
2013-03-14 03:45:00,33.5,16.9,29.91,WNW,283,0.0,0.0,50,0.00,,---,0.00,0.00,VWS V14.01,2013-03-14 07:45:00,
2013-03-14 03:50:00,33.4,16.8,29.91,WNW,302,0.0,0.0,50,0.00,,---,0.00,0.00,VWS V14.01,2013-03-14 07:50:00,
2013-03-14 03:55:00,33.3,16.2,29.91,West,281,0.0,0.0,49,0.00,,---,0.00,0.00,VWS V14.01,2013-03-14 07:55:00,
2013-03-14 04:00:00,33.1,16.0,29.91,NNE,27,0.0,0.0,49,0.00,,---,0.00,0.00,VWS V14.01,2013-03-14 08:00:00,
2013-03-14 04:05:00,32.9,14.4,29.91,West,267,0.0,0.0,46,0.00,,---,0.00,0.00,VWS V14.01,2013-03-14 08:05:00,
2013-03-14 04:10:00,32.7,14.2,29.91,NNW,340,0.0,0.0,46,0.00,,---,0.00,0.00,VWS V14.01,2013-03-14 08:10:00,
2013-03-14 04:15:00,32.5,14.5,29.91,NNW,332,0.0,0.0,47,0.00,,---,0.00,0.00,VWS V14.01,2013-03-14 08:15:00,
2013-03-14 04:20:00,32.3,14.3,29.91,NW,315,0.0,0.0,47,0.00,,---,0.00,0.00,VWS V14.01,2013-03-14 08:20:00,
2013-03-14 04:25:00,32.1,13.7,29.91,NW,319,0.0,0.0,46,0.00,,---,0.00,0.00,VWS V14.01,2013-03-14 08:25:00,
2013-03-14 04:30:00,32.0,13.1,29.91,NNW,327,0.0,0.0,45,0.00,,---,0.00,0.00,VWS V14.01,2013-03-14 08:30:00,
2013-03-14 04:35:00,31.8,12.9,29.92,West,270,0.0,0.0,45,0.00,,---,0.00,0.00,VWS V14.01,2013-03-14 08:35:00,
2013-03-14 04:40:00,31.8,12.9,29.92,West,260,0.0,0.0,45,0.00,,---,0.00,0.00,VWS V14.01,2013-03-14 08:40:00,
2013-03-14 04:45:00,31.7,13.3,29.92,West,259,0.0,0.0,46,0.00,,---,0.00,0.00,VWS V14.01,2013-03-14 08:45:00,
2013-03-14 04:50:00,31.6,13.2,29.92,NW,323,0.0,0.0,46,0.00,,---,0.00,0.00,VWS V14.01,2013-03-14 08:50:00,
2013-03-14 04:55:00,31.7,12.8,29.92,WNW,298,0.0,0.0,45,0.00,,---,0.00,0.00,VWS V14.01,2013-03-14 08:55:00,
2013-03-14 05:00:00,31.6,12.7,29.92,WNW,292,0.0,0.0,45,0.00,,---,0.00,0.00,VWS V14.01,2013-03-14 09:00:00,
2013-03-14 05:05:00,31.6,12.7,29.91,NW,326,0.0,0.0,45,0.00,,---,0.00,0.00,VWS V14.01,2013-03-14 09:05:00,
2013-03-14 05:10:00,31.3,11.9,29.92,NW,315,0.0,0.0,44,0.00,,---,0.00,0.00,VWS V14.01,2013-03-14 09:10:00,
2013-03-14 05:15:00,31.3,12.4,29.92,WNW,286,0.0,0.0,45,0.00,,---,0.00,0.00,VWS V14.01,2013-03-14 09:15:00,
2013-03-14 05:20:00,31.3,12.4,29.92,NW,308,0.0,0.0,45,0.00,,---,0.00,0.00,VWS V14.01,2013-03-14 09:20:00,
2013-03-14 05:25:00,31.3,12.9,29.92,WNW,283,0.0,0.0,46,0.00,,---,0.00,0.00,VWS V14.01,2013-03-14 09:25:00,
2013-03-14 05:30:00,31.2,12.4,29.92,NNW,333,0.0,0.0,45,0.00,,---,0.00,0.00,VWS V14.01,2013-03-14 09:30:00,
2013-03-14 05:35:00,31.4,13.5,29.92,WSW,240,0.0,0.0,47,0.00,,---,0.00,0.00,VWS V14.01,2013-03-14 09:35:00,
2013-03-14 05:40:00,31.2,13.3,29.92,WSW,250,0.0,0.0,47,0.00,,---,0.00,0.00,VWS V14.01,2013-03-14 09:40:00,
2013-03-14 05:45:00,31.0,13.1,29.92,WSW,251,0.0,0.0,47,0.00,,---,0.00,0.00,VWS V14.01,2013-03-14 09:45:00,
2013-03-14 05:50:00,30.9,13.5,29.92,WNW,286,0.0,0.0,48,0.00,,---,0.00,0.00,VWS V14.01,2013-03-14 09:50:00,
2013-03-14 05:55:00,31.0,13.1,29.92,SW,234,0.0,0.0,47,0.00,,---,0.00,0.00,VWS V14.01,2013-03-14 09:55:00,
2013-03-14 06:00:00,30.9,13.5,29.92,NW,326,0.0,0.0,48,0.00,,---,0.00,0.00,VWS V14.01,2013-03-14 10:00:00,
2013-03-14 06:05:00,30.8,13.9,29.93,WNW,290,0.0,0.0,49,0.00,,---,0.00,0.00,VWS V14.01,2013-03-14 10:05:00,
2013-03-14 06:10:00,30.8,13.9,29.93,NW,313,0.0,0.0,49,0.00,,---,0.00,0.00,VWS V14.01,2013-03-14 10:10:00,
2013-03-14 06:15:00,30.9,14.0,29.93,WNW,289,0.0,0.0,49,0.00,,---,0.00,0.00,VWS V14.01,2013-03-14 10:15:00,
2013-03-14 06:20:00,30.7,14.3,29.93,West,266,0.0,0.0,50,0.00,,---,0.00,0.00,VWS V14.01,2013-03-14 10:20:00,
2013-03-14 06:25:00,30.6,14.6,29.93,WNW,289,0.0,0.0,51,0.00,,---,0.00,0.00,VWS V14.01,2013-03-14 10:25:00,
2013-03-14 06:30:00,30.7,14.3,29.93,WNW,302,0.0,0.0,50,0.00,,---,0.00,0.00,VWS V14.01,2013-03-14 10:30:00,
2013-03-14 06:35:00,30.6,14.6,29.93,WNW,290,0.0,0.0,51,0.00,,---,0.00,0.00,VWS V14.01,2013-03-14 10:35:00,
2013-03-14 06:40:00,30.8,14.8,29.93,WSW,244,0.0,0.0,51,0.00,,---,0.00,0.00,VWS V14.01,2013-03-14 10:40:00,
2013-03-14 06:45:00,30.7,15.2,29.93,WNW,284,0.0,0.0,52,0.00,,---,0.00,0.00,VWS V14.01,2013-03-14 10:45:00,
2013-03-14 06:50:00,30.8,15.3,29.92,West,268,0.0,0.0,52,0.00,,---,0.00,0.00,VWS V14.01,2013-03-14 10:50:00,
2013-03-14 06:55:00,30.8,14.8,29.92,WNW,291,0.0,0.0,51,0.00,,---,0.00,0.00,VWS V14.01,2013-03-14 10:55:00,
2013-03-14 07:00:00,30.8,15.3,29.92,NW,306,0.0,0.0,52,0.00,,---,0.00,0.00,VWS V14.01,2013-03-14 11:00:00,
2013-03-14 07:05:00,30.8,14.8,29.92,WSW,241,0.0,0.0,51,0.00,,---,0.00,0.00,VWS V14.01,2013-03-14 11:05:00,
2013-03-14 07:10:00,30.8,14.8,29.92,SW,232,0.0,0.0,51,0.00,,---,0.00,0.00,VWS V14.01,2013-03-14 11:10:00,
2013-03-14 07:15:00,30.7,13.8,29.93,WNW,295,0.0,0.0,49,0.00,,---,0.00,5.00,VWS V14.01,2013-03-14 11:15:00,
2013-03-14 07:20:00,30.8,13.9,29.93,West,264,0.0,0.0,49,0.00,,---,0.00,7.00,VWS V14.01,2013-03-14 11:20:00,
2013-03-14 07:25:00,31.0,14.6,29.93,West,262,0.0,0.0,50,0.00,,---,0.00,11.00,VWS V14.01,2013-03-14 11:25:00,
2013-03-14 07:30:00,31.0,14.1,29.93,WNW,298,0.0,0.0,49,0.00,,---,0.00,16.00,VWS V14.01,2013-03-14 11:30:00,
2013-03-14 07:35:00,31.0,14.1,29.93,WNW,301,0.0,0.0,49,0.00,,---,0.00,21.00,VWS V14.01,2013-03-14 11:35:00,
2013-03-14 07:40:00,31.0,13.6,29.94,NNW,331,0.0,0.0,48,0.00,,---,0.00,28.00,VWS V14.01,2013-03-14 11:40:00,
2013-03-14 07:45:00,31.1,13.2,29.94,NW,324,0.0,0.0,47,0.00,,---,0.00,19.00,VWS V14.01,2013-03-14 11:45:00,
2013-03-14 07:50:00,31.2,13.3,29.95,NNW,333,0.0,0.0,47,0.00,,---,0.00,16.00,VWS V14.01,2013-03-14 11:50:00,
2013-03-14 07:55:00,31.1,13.2,29.95,West,269,0.0,0.0,47,0.00,,---,0.00,28.00,VWS V14.01,2013-03-14 11:55:00,
2013-03-14 08:00:00,31.1,13.2,29.95,NW,325,0.0,0.0,47,0.00,,---,0.00,32.00,VWS V14.01,2013-03-14 12:00:00,
2013-03-14 08:05:00,31.2,13.8,29.95,NW,311,0.0,0.0,48,0.00,,---,0.00,49.00,VWS V14.01,2013-03-14 12:05:00,
2013-03-14 08:10:00,31.0,12.7,29.96,West,277,0.0,0.0,46,0.00,,---,0.00,56.00,VWS V14.01,2013-03-14 12:10:00,
2013-03-14 08:15:00,30.8,13.0,29.96,West,260,0.0,0.0,47,0.00,,---,0.00,65.00,VWS V14.01,2013-03-14 12:15:00,
2013-03-14 08:20:00,30.6,13.3,29.96,NNW,327,0.0,0.0,48,0.00,,---,0.00,62.00,VWS V14.01,2013-03-14 12:20:00,
2013-03-14 08:25:00,30.6,13.7,29.96,NNW,339,0.0,0.0,49,0.00,,---,0.00,69.00,VWS V14.01,2013-03-14 12:25:00,
2013-03-14 08:30:00,30.4,13.5,29.96,West,273,0.0,0.0,49,0.00,,---,0.00,60.00,VWS V14.01,2013-03-14 12:30:00,
2013-03-14 08:35:00,30.2,13.8,29.96,NNW,330,0.0,0.0,50,0.00,,---,0.00,77.00,VWS V14.01,2013-03-14 12:35:00,
2013-03-14 08:40:00,30.1,13.3,29.96,NW,324,0.0,0.0,49,0.00,,---,0.00,88.00,VWS V14.01,2013-03-14 12:40:00,
2013-03-14 08:45:00,29.9,12.6,29.97,WNW,298,0.0,0.0,48,0.00,,---,0.00,91.00,VWS V14.01,2013-03-14 12:45:00,
2013-03-14 08:50:00,29.9,12.6,29.97,WNW,296,0.0,0.0,48,0.00,,---,0.00,98.00,VWS V14.01,2013-03-14 12:50:00,
2013-03-14 08:55:00,29.9,12.6,29.97,North,355,0.0,0.0,48,0.00,,---,0.00,109.00,VWS V14.01,2013-03-14 12:55:00,
2013-03-14 09:00:00,30.0,12.7,29.97,WNW,296,0.0,0.0,48,0.00,,---,0.00,120.00,VWS V14.01,2013-03-14 13:00:00,
2013-03-14 09:05:00,30.1,12.8,29.97,WNW,290,0.0,0.0,48,0.00,,---,0.00,125.00,VWS V14.01,2013-03-14 13:05:00,
2013-03-14 09:10:00,30.1,12.8,29.97,WSW,249,0.0,0.0,48,0.00,,---,0.00,139.00,VWS V14.01,2013-03-14 13:10:00,
2013-03-14 09:15:00,30.1,12.8,29.97,West,267,0.0,0.0,48,0.00,,---,0.00,139.00,VWS V14.01,2013-03-14 13:15:00,
2013-03-14 09:20:00,30.3,12.5,29.97,NNW,335,0.0,0.0,47,0.00,,---,0.00,141.00,VWS V14.01,2013-03-14 13:20:00,
2013-03-14 09:25:00,30.5,12.7,29.97,West,279,0.0,0.0,47,0.00,,---,0.00,144.00,VWS V14.01,2013-03-14 13:25:00,
2013-03-14 09:30:00,30.5,13.2,29.98,WNW,297,0.0,0.0,48,0.00,,---,0.00,176.00,VWS V14.01,2013-03-14 13:30:00,
2013-03-14 09:35:00,30.5,12.7,29.97,WNW,297,0.0,0.0,47,0.00,,---,0.00,174.00,VWS V14.01,2013-03-14 13:35:00,
2013-03-14 09:40:00,30.5,12.7,29.97,NNW,337,0.0,0.0,47,0.00,,---,0.00,186.00,VWS V14.01,2013-03-14 13:40:00,
2013-03-14 09:45:00,30.5,12.2,29.97,NW,305,0.0,0.0,46,0.00,,---,0.00,167.00,VWS V14.01,2013-03-14 13:45:00,
2013-03-14 09:50:00,30.5,12.2,29.97,West,263,0.0,0.0,46,0.00,,---,0.00,174.00,VWS V14.01,2013-03-14 13:50:00,
2013-03-14 09:55:00,30.6,12.3,29.97,NW,316,0.0,0.0,46,0.00,,---,0.00,206.00,VWS V14.01,2013-03-14 13:55:00,
2013-03-14 10:00:00,30.4,12.1,29.97,WSW,257,0.0,0.0,46,0.00,,---,0.00,167.00,VWS V14.01,2013-03-14 14:00:00,
2013-03-14 10:05:00,30.6,12.8,29.97,NW,311,0.0,0.0,47,0.00,,---,0.00,229.00,VWS V14.01,2013-03-14 14:05:00,
2013-03-14 10:10:00,31.0,12.7,29.97,WNW,299,0.0,0.0,46,0.00,,---,0.00,262.00,VWS V14.01,2013-03-14 14:10:00,
2013-03-14 10:15:00,31.0,12.2,29.97,NNW,345,0.0,0.0,45,0.00,,---,0.00,230.00,VWS V14.01,2013-03-14 14:15:00,
2013-03-14 10:20:00,31.3,12.4,29.97,WNW,285,0.0,0.0,45,0.00,,---,0.00,271.00,VWS V14.01,2013-03-14 14:20:00,
2013-03-14 10:25:00,31.7,12.8,29.97,WSW,244,0.0,0.0,45,0.00,,---,0.00,197.00,VWS V14.01,2013-03-14 14:25:00,
2013-03-14 10:30:00,31.3,11.9,29.97,NNW,340,0.0,0.0,44,0.00,,---,0.00,264.00,VWS V14.01,2013-03-14 14:30:00,
2013-03-14 10:35:00,32.1,13.2,29.97,WNW,283,0.0,0.0,45,0.00,,---,0.00,229.00,VWS V14.01,2013-03-14 14:35:00,
2013-03-14 10:40:00,32.1,12.7,29.96,West,262,0.0,0.0,44,0.00,,---,0.00,251.00,VWS V14.01,2013-03-14 14:40:00,
2013-03-14 10:45:00,31.7,12.8,29.97,WNW,301,0.0,0.0,45,0.00,,---,0.00,285.00,VWS V14.01,2013-03-14 14:45:00,
2013-03-14 10:50:00,32.1,12.7,29.97,West,269,0.0,0.0,44,0.00,,---,0.00,315.00,VWS V14.01,2013-03-14 14:50:00,
2013-03-14 10:55:00,32.0,13.1,29.97,NNW,336,0.0,0.0,45,0.00,,---,0.00,343.00,VWS V14.01,2013-03-14 14:55:00,
2013-03-14 11:00:00,32.2,13.8,29.97,WNW,284,0.0,0.0,46,0.00,,---,0.00,380.00,VWS V14.01,2013-03-14 15:00:00,
2013-03-14 11:05:00,32.8,13.8,29.96,NW,309,0.0,0.0,45,0.00,,---,0.00,503.00,VWS V14.01,2013-03-14 15:05:00,
2013-03-14 11:10:00,33.8,14.2,29.96,NW,321,0.0,0.0,44,0.00,,---,0.00,466.00,VWS V14.01,2013-03-14 15:10:00,
2013-03-14 11:15:00,33.5,13.9,29.96,WSW,242,0.0,0.0,44,0.00,,---,0.00,501.00,VWS V14.01,2013-03-14 15:15:00,
2013-03-14 11:20:00,34.1,14.5,29.96,NW,304,0.0,0.0,44,0.00,,---,0.00,469.00,VWS V14.01,2013-03-14 15:20:00,
2013-03-14 11:25:00,34.4,14.8,29.96,West,278,0.0,0.0,44,0.00,,---,0.00,355.00,VWS V14.01,2013-03-14 15:25:00,
2013-03-14 11:30:00,34.3,14.1,29.95,WSW,239,0.0,0.0,43,0.00,,---,0.00,352.00,VWS V14.01,2013-03-14 15:30:00,
2013-03-14 11:35:00,33.6,15.0,29.95,West,275,0.0,0.0,46,0.00,,---,0.00,350.00,VWS V14.01,2013-03-14 15:35:00,
2013-03-14 11:40:00,33.8,15.7,29.95,WNW,282,0.0,0.0,47,0.00,,---,0.00,390.00,VWS V14.01,2013-03-14 15:40:00,
2013-03-14 11:45:00,33.7,15.6,29.95,WNW,292,0.0,0.0,47,0.00,,---,0.00,380.00,VWS V14.01,2013-03-14 15:45:00,
2013-03-14 11:50:00,33.8,15.7,29.95,NNW,329,0.0,0.0,47,0.00,,---,0.00,392.00,VWS V14.01,2013-03-14 15:50:00,
2013-03-14 11:55:00,34.0,15.4,29.95,WNW,290,0.0,0.0,46,0.00,,---,0.00,399.00,VWS V14.01,2013-03-14 15:55:00,
2013-03-14 12:00:00,34.5,15.9,29.95,NW,305,0.0,0.0,46,0.00,,---,0.00,302.00,VWS V14.01,2013-03-14 16:00:00,
2013-03-14 12:05:00,34.6,15.5,29.95,NW,309,0.0,0.0,45,0.00,,---,0.00,311.00,VWS V14.01,2013-03-14 16:05:00,
2013-03-14 12:10:00,34.1,15.0,29.95,NNW,348,0.0,0.0,45,0.00,,---,0.00,422.00,VWS V14.01,2013-03-14 16:10:00,
2013-03-14 12:15:00,34.4,15.3,29.94,WNW,296,0.0,0.0,45,0.00,,---,0.00,346.00,VWS V14.01,2013-03-14 16:15:00,
2013-03-14 12:20:00,34.6,14.9,29.94,NNE,33,0.0,0.0,44,0.00,,---,0.00,334.00,VWS V14.01,2013-03-14 16:20:00,
2013-03-14 12:25:00,34.9,15.7,29.94,WNW,300,0.0,0.0,45,0.00,,---,0.00,380.00,VWS V14.01,2013-03-14 16:25:00,
2013-03-14 12:30:00,34.9,14.7,29.93,NW,310,0.0,0.0,43,0.00,,---,0.00,322.00,VWS V14.01,2013-03-14 16:30:00,
2013-03-14 12:35:00,35.1,15.4,29.94,NW,316,0.0,0.0,44,0.00,,---,0.00,343.00,VWS V14.01,2013-03-14 16:35:00,
2013-03-14 12:40:00,35.8,15.5,29.93,West,261,0.0,0.0,43,0.00,,---,0.00,548.00,VWS V14.01,2013-03-14 16:40:00,
2013-03-14 12:45:00,35.7,15.4,29.93,North,355,0.0,0.0,43,0.00,,---,0.00,404.00,VWS V14.01,2013-03-14 16:45:00,
2013-03-14 12:50:00,36.0,15.1,29.93,NNW,333,0.0,0.0,42,0.00,,---,0.00,374.00,VWS V14.01,2013-03-14 16:50:00,
2013-03-14 12:55:00,35.5,14.1,29.93,WNW,288,0.0,0.0,41,0.00,,---,0.00,320.00,VWS V14.01,2013-03-14 16:55:00,
2013-03-14 13:00:00,36.2,14.8,29.93,WNW,288,0.0,0.0,41,0.00,,---,0.00,466.00,VWS V14.01,2013-03-14 17:00:00,
2013-03-14 13:05:00,37.3,15.2,29.92,WNW,296,0.0,0.0,40,0.00,,---,0.00,466.00,VWS V14.01,2013-03-14 17:05:00,
2013-03-14 13:10:00,37.6,15.5,29.93,West,280,0.0,0.0,40,0.00,,---,0.00,527.00,VWS V14.01,2013-03-14 17:10:00,
2013-03-14 13:15:00,38.4,15.0,29.92,West,275,0.0,0.0,38,0.00,,---,0.00,1051.00,VWS V14.01,2013-03-14 17:15:00,
2013-03-14 13:20:00,38.9,16.1,29.92,West,259,0.0,0.0,39,0.00,,---,0.00,940.00,VWS V14.01,2013-03-14 17:20:00,
2013-03-14 13:25:00,38.6,15.2,29.92,NNW,331,0.0,0.0,38,0.00,,---,0.00,893.00,VWS V14.01,2013-03-14 17:25:00,
2013-03-14 13:30:00,38.4,14.4,29.92,WNW,293,0.0,0.0,37,0.00,,---,0.00,902.00,VWS V14.01,2013-03-14 17:30:00,
2013-03-14 13:35:00,38.8,15.4,29.91,WNW,284,0.0,0.0,38,0.00,,---,0.00,921.00,VWS V14.01,2013-03-14 17:35:00,
2013-03-14 13:40:00,39.0,15.6,29.91,North,5,0.0,0.0,38,0.00,,---,0.00,251.00,VWS V14.01,2013-03-14 17:40:00,
2013-03-14 13:45:00,39.1,14.4,29.91,WSW,252,0.0,0.0,36,0.00,,---,0.00,844.00,VWS V14.01,2013-03-14 17:45:00,
2013-03-14 13:50:00,39.1,15.0,29.91,NW,312,0.0,0.0,37,0.00,,---,0.00,842.00,VWS V14.01,2013-03-14 17:50:00,
2013-03-14 13:55:00,40.2,14.8,29.91,NW,318,0.0,0.0,35,0.00,,---,0.00,826.00,VWS V14.01,2013-03-14 17:55:00,
2013-03-14 14:00:00,39.8,14.4,29.90,SSW,199,0.0,0.0,35,0.00,,---,0.00,831.00,VWS V14.01,2013-03-14 18:00:00,
2013-03-14 14:05:00,40.4,13.6,29.90,WSW,243,0.0,0.0,33,0.00,,---,0.00,810.00,VWS V14.01,2013-03-14 18:05:00,
2013-03-14 14:10:00,40.0,13.9,29.90,WNW,288,0.0,0.0,34,0.00,,---,0.00,798.00,VWS V14.01,2013-03-14 18:10:00,
2013-03-14 14:15:00,39.8,13.1,29.90,NW,317,0.0,0.0,33,0.00,,---,0.00,816.00,VWS V14.01,2013-03-14 18:15:00,
2013-03-14 14:20:00,40.1,14.0,29.89,NW,317,0.0,0.0,34,0.00,,---,0.00,789.00,VWS V14.01,2013-03-14 18:20:00,
2013-03-14 14:25:00,40.6,13.8,29.89,South,187,0.0,0.0,33,0.00,,---,0.00,779.00,VWS V14.01,2013-03-14 18:25:00,
2013-03-14 14:30:00,41.0,14.8,29.88,WSW,250,0.0,0.0,34,0.00,,---,0.00,803.00,VWS V14.01,2013-03-14 18:30:00,
2013-03-14 14:35:00,40.9,13.3,29.88,WNW,298,0.0,0.0,32,0.00,,---,0.00,766.00,VWS V14.01,2013-03-14 18:35:00,
2013-03-14 14:40:00,40.7,13.1,29.88,West,276,0.0,0.0,32,0.00,,---,0.00,765.00,VWS V14.01,2013-03-14 18:40:00,
2013-03-14 14:45:00,40.6,13.1,29.88,WNW,285,0.0,0.0,32,0.00,,---,0.00,751.00,VWS V14.01,2013-03-14 18:45:00,
2013-03-14 14:50:00,41.3,13.7,29.88,WSW,252,0.0,0.0,32,0.00,,---,0.00,766.00,VWS V14.01,2013-03-14 18:50:00,
2013-03-14 14:55:00,41.0,13.4,29.87,WNW,289,0.0,0.0,32,0.00,,---,0.00,745.00,VWS V14.01,2013-03-14 18:55:00,
2013-03-14 15:00:00,41.7,13.3,29.87,NNW,331,0.0,0.0,31,0.00,,---,0.00,752.00,VWS V14.01,2013-03-14 19:00:00,
2013-03-14 15:05:00,41.1,12.8,29.87,West,268,0.0,0.0,31,0.00,,---,0.00,775.00,VWS V14.01,2013-03-14 19:05:00,
2013-03-14 15:10:00,41.4,12.3,29.87,NW,324,0.0,0.0,30,0.00,,---,0.00,297.00,VWS V14.01,2013-03-14 19:10:00,
2013-03-14 15:15:00,40.9,12.6,29.87,NW,325,0.0,0.0,31,0.00,,---,0.00,185.00,VWS V14.01,2013-03-14 19:15:00,
2013-03-14 15:20:00,41.5,13.1,29.87,West,267,0.0,0.0,31,0.00,,---,0.00,714.00,VWS V14.01,2013-03-14 19:20:00,
2013-03-14 15:25:00,42.2,12.2,29.86,NNW,331,0.0,0.0,29,0.00,,---,0.00,737.00,VWS V14.01,2013-03-14 19:25:00,
2013-03-14 15:30:00,42.2,12.2,29.86,WSW,251,0.0,0.0,29,0.00,,---,0.00,183.00,VWS V14.01,2013-03-14 19:30:00,
2013-03-14 15:35:00,42.4,11.6,29.86,NW,319,0.0,0.0,28,0.00,,---,0.00,708.00,VWS V14.01,2013-03-14 19:35:00,
2013-03-14 15:40:00,42.5,11.7,29.86,West,263,0.0,0.0,28,0.00,,---,0.00,700.00,VWS V14.01,2013-03-14 19:40:00,
2013-03-14 15:45:00,42.9,11.2,29.86,WNW,302,0.0,0.0,27,0.00,,---,0.00,668.00,VWS V14.01,2013-03-14 19:45:00,
2013-03-14 15:50:00,42.6,11.0,29.86,NW,304,0.0,0.0,27,0.00,,---,0.00,671.00,VWS V14.01,2013-03-14 19:50:00,
2013-03-14 15:55:00,42.2,9.8,29.86,WNW,286,0.0,0.0,26,0.00,,---,0.00,174.00,VWS V14.01,2013-03-14 19:55:00,
2013-03-14 16:00:00,41.6,10.9,29.86,WNW,287,0.0,0.0,28,0.00,,---,0.00,179.00,VWS V14.01,2013-03-14 20:00:00,
2013-03-14 16:05:00,41.8,11.1,29.86,WNW,286,0.0,0.0,28,0.00,,---,0.00,661.00,VWS V14.01,2013-03-14 20:05:00,
2013-03-14 16:10:00,42.2,11.4,29.86,WSW,253,0.0,0.0,28,0.00,,---,0.00,650.00,VWS V14.01,2013-03-14 20:10:00,
2013-03-14 16:15:00,41.9,10.4,29.86,North,350,0.0,0.0,27,0.00,,---,0.00,162.00,VWS V14.01,2013-03-14 20:15:00,
2013-03-14 16:20:00,42.5,11.7,29.86,WNW,296,0.0,0.0,28,0.00,,---,0.00,413.00,VWS V14.01,2013-03-14 20:20:00,
2013-03-14 16:25:00,42.5,10.9,29.86,WNW,297,0.0,0.0,27,0.00,,---,0.00,174.00,VWS V14.01,2013-03-14 20:25:00,
2013-03-14 16:30:00,42.1,11.4,29.86,WNW,298,0.0,0.0,28,0.00,,---,0.00,185.00,VWS V14.01,2013-03-14 20:30:00,
2013-03-14 16:35:00,42.8,12.0,29.86,West,277,0.0,0.0,28,0.00,,---,0.00,487.00,VWS V14.01,2013-03-14 20:35:00,
2013-03-14 16:40:00,42.4,10.8,29.86,West,263,0.0,0.0,27,0.00,,---,0.00,128.00,VWS V14.01,2013-03-14 20:40:00,
2013-03-14 16:45:00,42.0,10.5,29.86,West,261,0.0,0.0,27,0.00,,---,0.00,471.00,VWS V14.01,2013-03-14 20:45:00,
2013-03-14 16:50:00,41.8,10.3,29.86,West,273,0.0,0.0,27,0.00,,---,0.00,464.00,VWS V14.01,2013-03-14 20:50:00,
2013-03-14 16:55:00,41.8,10.3,29.86,NNW,346,0.0,0.0,27,0.00,,---,0.00,380.00,VWS V14.01,2013-03-14 20:55:00,
2013-03-14 17:00:00,41.6,10.1,29.86,West,268,0.0,0.0,27,0.00,,---,0.00,118.00,VWS V14.01,2013-03-14 21:00:00,
2013-03-14 17:05:00,41.5,10.0,29.86,WNW,294,0.0,0.0,27,0.00,,---,0.00,134.00,VWS V14.01,2013-03-14 21:05:00,
2013-03-14 17:10:00,41.9,9.5,29.86,NW,304,0.0,0.0,26,0.00,,---,0.00,244.00,VWS V14.01,2013-03-14 21:10:00,
2013-03-14 17:15:00,41.4,9.1,29.87,NNW,343,0.0,0.0,26,0.00,,---,0.00,118.00,VWS V14.01,2013-03-14 21:15:00,
2013-03-14 17:20:00,41.1,9.7,29.87,NW,316,0.0,0.0,27,0.00,,---,0.00,148.00,VWS V14.01,2013-03-14 21:20:00,
2013-03-14 17:25:00,41.4,9.9,29.87,North,11,0.0,0.0,27,0.00,,---,0.00,318.00,VWS V14.01,2013-03-14 21:25:00,
2013-03-14 17:30:00,42.0,9.6,29.86,NNW,328,0.0,0.0,26,0.00,,---,0.00,274.00,VWS V14.01,2013-03-14 21:30:00,
2013-03-14 17:35:00,41.5,9.2,29.86,WNW,288,0.0,0.0,26,0.00,,---,0.00,192.00,VWS V14.01,2013-03-14 21:35:00,
2013-03-14 17:40:00,41.3,9.0,29.87,West,259,0.0,0.0,26,0.00,,---,0.00,188.00,VWS V14.01,2013-03-14 21:40:00,
2013-03-14 17:45:00,41.1,8.8,29.87,WNW,298,0.0,0.0,26,0.00,,---,0.00,132.00,VWS V14.01,2013-03-14 21:45:00,
2013-03-14 17:50:00,41.2,8.9,29.87,NW,307,0.0,0.0,26,0.00,,---,0.00,146.00,VWS V14.01,2013-03-14 21:50:00,
2013-03-14 17:55:00,41.1,8.8,29.87,North,9,0.0,0.0,26,0.00,,---,0.00,130.00,VWS V14.01,2013-03-14 21:55:00,
2013-03-14 18:00:00,40.8,7.7,29.87,West,271,0.0,0.0,25,0.00,,---,0.00,98.00,VWS V14.01,2013-03-14 22:00:00,
2013-03-14 18:05:00,40.7,8.5,29.87,NNW,332,0.0,0.0,26,0.00,,---,0.00,79.00,VWS V14.01,2013-03-14 22:05:00,
2013-03-14 18:10:00,40.5,9.2,29.87,WNW,286,0.0,0.0,27,0.00,,---,0.00,49.00,VWS V14.01,2013-03-14 22:10:00,
2013-03-14 18:15:00,40.5,9.2,29.87,West,278,0.0,0.0,27,0.00,,---,0.00,53.00,VWS V14.01,2013-03-14 22:15:00,
2013-03-14 18:20:00,40.5,9.2,29.87,North,5,0.0,0.0,27,0.00,,---,0.00,67.00,VWS V14.01,2013-03-14 22:20:00,
2013-03-14 18:25:00,40.3,9.0,29.88,WNW,286,0.0,0.0,27,0.00,,---,0.00,39.00,VWS V14.01,2013-03-14 22:25:00,
2013-03-14 18:30:00,40.2,8.9,29.88,WNW,299,0.0,0.0,27,0.00,,---,0.00,33.00,VWS V14.01,2013-03-14 22:30:00,
2013-03-14 18:35:00,40.2,9.7,29.88,WNW,289,0.0,0.0,28,0.00,,---,0.00,28.00,VWS V14.01,2013-03-14 22:35:00,
2013-03-14 18:40:00,40.0,8.7,29.88,WNW,302,0.0,0.0,27,0.00,,---,0.00,25.00,VWS V14.01,2013-03-14 22:40:00,
2013-03-14 18:45:00,39.7,8.5,29.89,WNW,291,0.0,0.0,27,0.00,,---,0.00,18.00,VWS V14.01,2013-03-14 22:45:00,
2013-03-14 18:50:00,39.4,7.4,29.89,WNW,295,0.0,0.0,26,0.00,,---,0.00,14.00,VWS V14.01,2013-03-14 22:50:00,
2013-03-14 18:55:00,39.2,7.2,29.89,WNW,302,0.0,0.0,26,0.00,,---,0.00,11.00,VWS V14.01,2013-03-14 22:55:00,
2013-03-14 19:00:00,39.0,7.0,29.89,WNW,286,0.0,0.0,26,0.00,,---,0.00,7.00,VWS V14.01,2013-03-14 23:00:00,
2013-03-14 19:05:00,39.0,7.0,29.90,NW,320,0.0,0.0,26,0.00,,---,0.00,0.00,VWS V14.01,2013-03-14 23:05:00,
2013-03-14 19:10:00,38.7,6.8,29.90,NNW,330,0.0,0.0,26,0.00,,---,0.00,0.00,VWS V14.01,2013-03-14 23:10:00,
2013-03-14 19:15:00,38.5,5.8,29.90,NW,305,0.0,0.0,25,0.00,,---,0.00,0.00,VWS V14.01,2013-03-14 23:15:00,
2013-03-14 19:20:00,38.4,7.3,29.90,WNW,294,0.0,0.0,27,0.00,,---,0.00,0.00,VWS V14.01,2013-03-14 23:20:00,
2013-03-14 19:25:00,38.2,7.2,29.90,WNW,296,0.0,0.0,27,0.00,,---,0.00,0.00,VWS V14.01,2013-03-14 23:25:00,
2013-03-14 19:30:00,38.1,7.1,29.90,NW,305,0.0,0.0,27,0.00,,---,0.00,0.00,VWS V14.01,2013-03-14 23:30:00,
2013-03-14 19:35:00,38.0,7.0,29.90,NW,313,0.0,0.0,27,0.00,,---,0.00,0.00,VWS V14.01,2013-03-14 23:35:00,
2013-03-14 19:40:00,37.9,6.9,29.91,WNW,298,0.0,0.0,27,0.00,,---,0.00,0.00,VWS V14.01,2013-03-14 23:40:00,
2013-03-14 19:45:00,37.8,6.8,29.91,NNW,340,0.0,0.0,27,0.00,,---,0.00,0.00,VWS V14.01,2013-03-14 23:45:00,
2013-03-14 19:50:00,37.7,6.8,29.91,WNW,301,0.0,0.0,27,0.00,,---,0.00,0.00,VWS V14.01,2013-03-14 23:50:00,
2013-03-14 19:55:00,37.5,7.4,29.91,WNW,290,0.0,0.0,28,0.00,,---,0.00,0.00,VWS V14.01,2013-03-14 23:55:00,
2013-03-14 20:00:00,37.3,6.4,29.92,NW,306,0.0,0.0,27,0.00,,---,0.00,0.00,VWS V14.01,2013-03-15 00:00:00,
2013-03-14 20:05:00,37.2,7.1,29.92,WSW,252,0.0,0.0,28,0.00,,---,0.00,0.00,VWS V14.01,2013-03-15 00:05:00,
2013-03-14 20:10:00,37.2,7.1,29.92,North,360,0.0,0.0,28,0.00,,---,0.00,0.00,VWS V14.01,2013-03-15 00:10:00,
2013-03-14 20:15:00,37.1,7.0,29.92,WNW,294,0.0,0.0,28,0.00,,---,0.00,0.00,VWS V14.01,2013-03-15 00:15:00,
2013-03-14 20:20:00,37.0,7.7,29.92,WNW,298,0.0,0.0,29,0.00,,---,0.00,0.00,VWS V14.01,2013-03-15 00:20:00,
2013-03-14 20:25:00,37.0,6.9,29.92,NNE,28,0.0,0.0,28,0.00,,---,0.00,0.00,VWS V14.01,2013-03-15 00:25:00,
2013-03-14 20:30:00,36.9,6.1,29.93,WSW,250,0.0,0.0,27,0.00,,---,0.00,0.00,VWS V14.01,2013-03-15 00:30:00,
2013-03-14 20:35:00,36.7,5.9,29.93,NW,324,0.0,0.0,27,0.00,,---,0.00,0.00,VWS V14.01,2013-03-15 00:35:00,
2013-03-14 20:40:00,36.6,6.6,29.93,WNW,290,0.0,0.0,28,0.00,,---,0.00,0.00,VWS V14.01,2013-03-15 00:40:00,
2013-03-14 20:45:00,36.5,6.5,29.93,West,273,0.0,0.0,28,0.00,,---,0.00,0.00,VWS V14.01,2013-03-15 00:45:00,
2013-03-14 20:50:00,36.5,6.5,29.93,South,180,0.0,0.0,28,0.00,,---,0.00,0.00,VWS V14.01,2013-03-15 00:50:00,
2013-03-14 20:55:00,36.3,7.1,29.93,North,5,0.0,0.0,29,0.00,,---,0.00,0.00,VWS V14.01,2013-03-15 00:55:00,
2013-03-14 21:00:00,36.2,7.8,29.93,NNW,327,0.0,0.0,30,0.00,,---,0.00,0.00,VWS V14.01,2013-03-15 01:00:00,
2013-03-14 21:05:00,36.1,6.9,29.93,NW,308,0.0,0.0,29,0.00,,---,0.00,0.00,VWS V14.01,2013-03-15 01:05:00,
2013-03-14 21:10:00,35.9,7.5,29.93,West,271,0.0,0.0,30,0.00,,---,0.00,0.00,VWS V14.01,2013-03-15 01:10:00,
2013-03-14 21:15:00,35.9,7.5,29.93,SW,232,0.0,0.0,30,0.00,,---,0.00,0.00,VWS V14.01,2013-03-15 01:15:00,
2013-03-14 21:20:00,35.7,7.3,29.93,West,279,0.0,0.0,30,0.00,,---,0.00,0.00,VWS V14.01,2013-03-15 01:20:00,
2013-03-14 21:25:00,35.7,7.3,29.94,NNE,19,0.0,0.0,30,0.00,,---,0.00,0.00,VWS V14.01,2013-03-15 01:25:00,
2013-03-14 21:30:00,35.5,7.2,29.93,NNW,329,0.0,0.0,30,0.00,,---,0.00,0.00,VWS V14.01,2013-03-15 01:30:00,
2013-03-14 21:35:00,35.6,7.2,29.93,NW,317,0.0,0.0,30,0.00,,---,0.00,0.00,VWS V14.01,2013-03-15 01:35:00,
2013-03-14 21:40:00,35.3,7.0,29.94,North,350,0.0,0.0,30,0.00,,---,0.00,0.00,VWS V14.01,2013-03-15 01:40:00,
2013-03-14 21:45:00,35.3,7.7,29.94,NW,306,0.0,0.0,31,0.00,,---,0.00,0.00,VWS V14.01,2013-03-15 01:45:00,
2013-03-14 21:50:00,35.2,7.6,29.94,WNW,282,0.0,0.0,31,0.00,,---,0.00,0.00,VWS V14.01,2013-03-15 01:50:00,
2013-03-14 21:55:00,35.2,7.6,29.94,WNW,282,0.0,0.0,31,0.00,,---,0.00,0.00,VWS V14.01,2013-03-15 01:55:00,
2013-03-14 22:00:00,35.1,7.5,29.94,NW,317,0.0,0.0,31,0.00,,---,0.00,0.00,VWS V14.01,2013-03-15 02:00:00,
2013-03-14 22:05:00,35.0,7.4,29.95,WNW,284,0.0,0.0,31,0.00,,---,0.00,0.00,VWS V14.01,2013-03-15 02:05:00,
2013-03-14 22:10:00,34.8,7.3,29.95,NNW,329,0.0,0.0,31,0.00,,---,0.00,0.00,VWS V14.01,2013-03-15 02:10:00,
2013-03-14 22:15:00,34.7,7.2,29.95,WSW,252,0.0,0.0,31,0.00,,---,0.00,0.00,VWS V14.01,2013-03-15 02:15:00,
2013-03-14 22:20:00,34.7,7.2,29.95,SW,224,0.0,0.0,31,0.00,,---,0.00,0.00,VWS V14.01,2013-03-15 02:20:00,
2013-03-14 22:24:00,34.7,7.2,29.95,WSW,245,0.0,0.0,31,0.00,,---,0.00,0.00,VWS V14.01,2013-03-15 02:24:00,
2013-03-14 22:30:00,34.6,7.8,29.95,West,281,0.0,0.0,32,0.00,,---,0.00,0.00,VWS V14.01,2013-03-15 02:30:00,
2013-03-14 22:35:00,34.5,7.0,29.95,NNW,327,0.0,0.0,31,0.00,,---,0.00,0.00,VWS V14.01,2013-03-15 02:35:00,
2013-03-14 22:39:00,34.4,7.6,29.96,West,281,0.0,0.0,32,0.00,,---,0.00,0.00,VWS V14.01,2013-03-15 02:39:00,
2013-03-14 22:44:00,34.3,7.5,29.95,WNW,286,0.0,0.0,32,0.00,,---,0.00,0.00,VWS V14.01,2013-03-15 02:44:00,
2013-03-14 22:49:00,34.2,7.4,29.96,WNW,286,0.0,0.0,32,0.00,,---,0.00,0.00,VWS V14.01,2013-03-15 02:49:00,
2013-03-14 22:54:00,34.1,7.3,29.96,NNW,342,0.0,0.0,32,0.00,,---,0.00,0.00,VWS V14.01,2013-03-15 02:54:00,
2013-03-14 22:59:00,34.1,8.0,29.96,West,272,0.0,0.0,33,0.00,,---,0.00,0.00,VWS V14.01,2013-03-15 02:59:00,
2013-03-14 23:04:00,34.1,8.7,29.96,NW,309,0.0,0.0,34,0.00,,---,0.00,0.00,VWS V14.01,2013-03-15 03:04:00,
2013-03-14 23:09:00,33.9,8.5,29.97,West,260,0.0,0.0,34,0.00,,---,0.00,0.00,VWS V14.01,2013-03-15 03:09:00,
2013-03-14 23:14:00,33.8,8.4,29.97,West,280,0.0,0.0,34,0.00,,---,0.00,0.00,VWS V14.01,2013-03-15 03:14:00,
2013-03-14 23:19:00,33.7,9.0,29.97,WNW,286,0.0,0.0,35,0.00,,---,0.00,0.00,VWS V14.01,2013-03-15 03:19:00,
2013-03-14 23:24:00,33.7,9.6,29.97,WSW,249,0.0,0.0,36,0.00,,---,0.00,0.00,VWS V14.01,2013-03-15 03:24:00,
2013-03-14 23:29:00,33.6,8.9,29.97,NNW,342,0.0,0.0,35,0.00,,---,0.00,0.00,VWS V14.01,2013-03-15 03:29:00,
2013-03-14 23:34:00,33.5,8.8,29.97,WNW,293,0.0,0.0,35,0.00,,---,0.00,0.00,VWS V14.01,2013-03-15 03:34:00,
2013-03-14 23:39:00,33.3,9.2,29.97,WNW,287,0.0,0.0,36,0.00,,---,0.00,0.00,VWS V14.01,2013-03-15 03:39:00,
2013-03-14 23:44:00,33.3,9.9,29.98,West,281,0.0,0.0,37,0.00,,---,0.00,0.00,VWS V14.01,2013-03-15 03:44:00,
2013-03-14 23:49:00,33.3,9.9,29.97,NW,320,0.0,0.0,37,0.00,,---,0.00,0.00,VWS V14.01,2013-03-15 03:49:00,
2013-03-14 23:54:00,33.3,9.9,29.98,WNW,294,0.0,0.0,37,0.00,,---,0.00,0.00,VWS V14.01,2013-03-15 03:54:00,
2013-03-14 23:59:00,33.2,10.4,29.98,West,275,0.0,0.0,38,0.00,,---,0.00,0.00,VWS V14.01,2013-03-15 03:59:00,